createdAt,value
2019-05-13T00:00:53.918Z,1.30
2019-05-13T00:03:23.987Z,0.60
2019-05-13T00:05:53.608Z,1.30
2019-05-13T00:08:24.813Z,0.90
2019-05-13T00:10:54.158Z,1.00
2019-05-13T00:13:24.133Z,0.90
2019-05-13T00:15:54.369Z,0.70
2019-05-13T00:18:23.517Z,0.80
2019-05-13T00:20:54.192Z,1.90
2019-05-13T00:23:23.356Z,0.60
2019-05-13T00:25:54.371Z,1.07
2019-05-13T00:28:23.500Z,0.77
2019-05-13T00:30:54.130Z,1.00
2019-05-13T00:33:24.307Z,0.70
2019-05-13T00:35:53.601Z,1.77
2019-05-13T00:38:24.568Z,0.90
2019-05-13T00:40:54.793Z,0.90
2019-05-13T00:43:24.571Z,0.70
2019-05-13T00:45:54.063Z,0.90
2019-05-13T00:48:23.361Z,0.93
2019-05-13T00:50:54.419Z,1.30
2019-05-13T00:53:23.746Z,0.93
2019-05-13T00:55:53.559Z,1.57
2019-05-13T00:58:24.139Z,1.20
2019-05-13T01:00:54.690Z,1.80
2019-05-13T01:03:26.336Z,1.30
2019-05-13T01:05:53.579Z,0.90
2019-05-13T01:08:23.711Z,1.90
2019-05-13T01:10:53.652Z,0.80
2019-05-13T01:13:23.778Z,0.70
2019-05-13T01:15:54.419Z,1.07
2019-05-13T01:18:23.446Z,1.10
2019-05-13T01:20:53.821Z,1.77
2019-05-13T01:23:24.030Z,0.90
2019-05-13T01:25:54.409Z,1.00
2019-05-13T01:28:23.953Z,1.27
2019-05-13T01:30:53.938Z,0.93
2019-05-13T01:33:23.543Z,0.90
2019-05-13T01:35:53.822Z,0.77
2019-05-13T01:38:24.090Z,0.80
2019-05-13T01:40:53.928Z,1.13
2019-05-13T01:43:24.555Z,1.50
2019-05-13T01:45:53.650Z,1.20
2019-05-13T01:48:24.078Z,1.53
2019-05-13T01:50:53.393Z,2.57
2019-05-13T01:53:24.389Z,0.90
2019-05-13T01:55:53.260Z,1.00
2019-05-13T01:58:23.631Z,1.10
2019-05-13T02:00:55.238Z,1.23
2019-05-13T02:03:24.699Z,1.83
2019-05-13T02:05:54.375Z,1.37
2019-05-13T02:08:24.585Z,1.47
2019-05-13T02:10:55.012Z,1.50
2019-05-13T02:13:24.824Z,1.10
2019-05-13T02:15:55.665Z,0.70
2019-05-13T02:18:25.980Z,1.27
2019-05-13T02:20:56.072Z,0.90
2019-05-13T02:23:24.682Z,1.83
2019-05-13T02:25:54.115Z,1.47
2019-05-13T02:28:24.823Z,1.10
2019-05-13T02:30:55.764Z,1.27
2019-05-13T02:33:24.235Z,0.80
2019-05-13T02:35:53.397Z,1.70
2019-05-13T02:38:27.498Z,1.27
2019-05-13T02:40:53.269Z,3.40
2019-05-13T02:43:23.921Z,1.23
2019-05-13T02:45:53.465Z,1.40
2019-05-13T02:48:23.545Z,1.07
2019-05-13T02:50:53.491Z,1.30
2019-05-13T02:53:23.781Z,1.00
2019-05-13T02:55:52.888Z,1.20
2019-05-13T02:58:24.318Z,1.27
2019-05-13T03:00:53.524Z,3.90
2019-05-13T03:03:24.182Z,1.33
2019-05-13T03:05:53.344Z,1.10
2019-05-13T03:08:35.289Z,1.07
2019-05-13T03:10:53.757Z,2.20
2019-05-13T03:13:23.785Z,1.30
2019-05-13T03:16:06.592Z,1.73
2019-05-13T03:18:34.995Z,1.43
2019-05-13T03:21:03.820Z,1.20
2019-05-13T03:23:33.955Z,1.00
2019-05-13T03:26:03.010Z,1.40
2019-05-13T03:28:33.571Z,1.40
2019-05-13T03:31:06.719Z,1.83
2019-05-13T03:33:36.793Z,2.30
2019-05-13T03:36:06.727Z,2.37
2019-05-13T03:38:53.764Z,1.03
2019-05-13T03:41:06.614Z,1.00
2019-05-13T03:43:38.609Z,1.60
2019-05-13T03:46:12.174Z,0.73
2019-05-13T03:48:42.812Z,1.07
2019-05-13T03:51:13.265Z,2.73
2019-05-13T03:53:43.449Z,2.27
2019-05-13T03:56:13.784Z,1.00
2019-05-13T03:58:43.675Z,1.77
2019-05-13T04:01:14.474Z,1.43
2019-05-13T04:03:44.134Z,1.43
2019-05-13T04:06:13.789Z,2.70
2019-05-13T04:08:43.996Z,4.47
2019-05-13T04:11:13.808Z,1.53
2019-05-13T04:13:43.214Z,4.43
2019-05-13T04:16:13.017Z,1.43
2019-05-13T04:18:42.841Z,3.23
2019-05-13T04:21:13.129Z,2.33
2019-05-13T04:23:42.792Z,1.13
2019-05-13T04:26:14.982Z,1.20
2019-05-13T04:28:43.565Z,2.60
2019-05-13T04:31:14.119Z,2.20
2019-05-13T04:33:44.818Z,1.97
2019-05-13T04:36:13.888Z,2.00
2019-05-13T04:38:44.491Z,3.93
2019-05-13T04:41:13.514Z,1.43
2019-05-13T04:43:43.658Z,2.03
2019-05-13T04:46:13.958Z,1.20
2019-05-13T04:48:44.662Z,1.20
2019-05-13T04:51:14.180Z,4.20
2019-05-13T04:53:43.178Z,1.33
2019-05-13T04:56:13.647Z,1.67
2019-05-13T04:58:43.037Z,1.50
2019-05-13T05:02:13.542Z,2.23
2019-05-13T05:04:52.599Z,1.87
2019-05-13T05:08:37.018Z,2.20
2019-05-13T05:12:18.470Z,2.10
2019-05-13T05:15:34.902Z,1.70
2019-05-13T05:18:32.691Z,3.80
2019-05-13T05:21:18.997Z,1.20
2019-05-13T05:25:22.182Z,1.70
2019-05-13T05:29:01.534Z,2.27
2019-05-13T05:31:51.816Z,1.53
2019-05-13T05:35:13.839Z,3.87
2019-05-13T05:38:51.393Z,1.63
2019-05-13T05:41:25.583Z,2.70
2019-05-13T05:43:56.559Z,1.63
2019-05-13T05:46:25.763Z,2.20
2019-05-13T05:48:55.239Z,2.37
2019-05-13T05:51:25.410Z,3.47
2019-05-13T05:53:56.899Z,3.93
2019-05-13T05:56:29.508Z,7.10
2019-05-13T05:58:58.984Z,2.83
2019-05-13T06:01:29.104Z,4.57
2019-05-13T06:03:58.418Z,6.53
2019-05-13T06:06:28.365Z,3.60
2019-05-13T06:08:57.714Z,3.07
2019-05-13T06:11:26.365Z,2.93
2019-05-13T06:13:54.849Z,3.00
2019-05-13T06:16:23.258Z,2.23
2019-05-13T06:18:52.260Z,2.73
2019-05-13T06:21:21.607Z,2.40
2019-05-13T06:23:51.853Z,1.50
2019-05-13T06:26:23.662Z,4.70
2019-05-13T06:28:52.047Z,2.47
2019-05-13T06:31:21.582Z,1.73
2019-05-13T06:33:51.469Z,2.80
2019-05-13T06:36:22.094Z,2.47
2019-05-13T06:38:51.359Z,1.83
2019-05-13T06:41:21.947Z,1.80
2019-05-13T06:43:52.401Z,3.50
2019-05-13T06:46:21.880Z,1.60
2019-05-13T06:48:52.114Z,1.87
2019-05-13T06:51:22.216Z,1.80
2019-05-13T06:53:52.566Z,2.87
2019-05-13T06:56:22.780Z,2.00
2019-05-13T06:58:52.158Z,2.10
2019-05-13T07:01:21.708Z,1.50
2019-05-13T07:03:51.788Z,1.93
2019-05-13T07:06:21.697Z,2.10
2019-05-13T07:08:52.169Z,1.73
2019-05-13T07:11:24.537Z,2.30
2019-05-13T07:13:51.738Z,5.33
2019-05-13T07:16:22.443Z,2.87
2019-05-13T07:18:52.299Z,2.93
2019-05-13T07:21:21.815Z,2.23
2019-05-13T07:23:54.200Z,1.73
2019-05-13T07:26:22.075Z,2.20
2019-05-13T07:28:52.456Z,2.53
2019-05-13T07:31:21.898Z,3.00
2019-05-13T07:33:51.681Z,2.20
2019-05-13T07:36:22.583Z,4.07
2019-05-13T07:38:52.113Z,4.10
2019-05-13T07:41:34.691Z,2.00
2019-05-13T07:43:51.760Z,2.90
2019-05-13T07:46:21.843Z,2.03
2019-05-13T07:48:52.156Z,3.00
2019-05-13T07:51:22.149Z,2.20
2019-05-13T07:53:51.779Z,3.07
2019-05-13T07:56:21.873Z,2.50
2019-05-13T07:58:52.355Z,1.53
2019-05-13T08:01:22.932Z,1.97
2019-05-13T08:03:52.251Z,3.27
2019-05-13T08:06:22.000Z,3.53
2019-05-13T08:08:52.310Z,2.80
2019-05-13T08:11:24.069Z,2.60
2019-05-13T08:13:52.928Z,1.90
2019-05-13T08:16:22.355Z,2.07
2019-05-13T08:18:52.300Z,1.73
2019-05-13T08:21:22.349Z,2.07
2019-05-13T08:23:52.482Z,2.40
2019-05-13T08:26:23.031Z,1.77
2019-05-13T08:29:01.217Z,1.90
2019-05-13T08:31:22.078Z,5.20
2019-05-13T08:33:51.889Z,2.63
2019-05-13T08:36:23.285Z,2.53
2019-05-13T08:38:51.907Z,1.70
2019-05-13T08:41:23.378Z,1.80
2019-05-13T08:43:52.399Z,2.03
2019-05-13T08:46:21.963Z,1.50
2019-05-13T08:48:52.337Z,2.90
2019-05-13T08:51:22.104Z,5.17
2019-05-13T08:53:51.657Z,3.30
2019-05-13T08:56:21.847Z,3.30
2019-05-13T08:58:52.116Z,2.63
2019-05-13T09:01:22.700Z,3.20
2019-05-13T09:03:52.183Z,3.30
2019-05-13T09:06:22.108Z,4.53
2019-05-13T09:08:53.869Z,2.90
2019-05-13T09:11:22.228Z,2.03
2019-05-13T09:13:52.226Z,3.40
2019-05-13T09:16:21.501Z,2.10
2019-05-13T09:18:52.122Z,2.87
2019-05-13T09:21:22.474Z,2.33
2019-05-13T09:23:51.585Z,2.50
2019-05-13T09:26:22.590Z,6.90
2019-05-13T09:28:52.156Z,2.03
2019-05-13T09:31:22.108Z,2.43
2019-05-13T09:33:52.078Z,1.70
2019-05-13T09:36:21.786Z,2.60
2019-05-13T09:38:52.632Z,2.20
2019-05-13T09:41:21.445Z,2.43
2019-05-13T09:43:51.347Z,3.20
2019-05-13T09:46:22.614Z,2.23
2019-05-13T09:48:51.627Z,2.00
2019-05-13T09:51:21.662Z,2.93
2019-05-13T09:53:51.974Z,3.97
2019-05-13T09:56:22.376Z,5.70
2019-05-13T09:58:51.405Z,3.00
2019-05-13T10:01:22.556Z,5.20
2019-05-13T10:03:54.887Z,3.83
2019-05-13T10:06:22.189Z,3.00
2019-05-13T10:08:52.692Z,2.50
2019-05-13T10:11:21.866Z,2.33
2019-05-13T10:13:51.493Z,2.10
2019-05-13T10:16:22.065Z,4.10
2019-05-13T10:18:52.457Z,2.13
2019-05-13T10:21:21.828Z,3.43
2019-05-13T10:23:51.228Z,3.70
2019-05-13T10:26:21.999Z,2.80
2019-05-13T10:28:50.659Z,2.50
2019-05-13T10:31:21.809Z,3.00
2019-05-13T10:33:51.604Z,2.20
2019-05-13T10:36:22.320Z,3.70
2019-05-13T10:38:52.146Z,1.87
2019-05-13T10:41:22.206Z,6.27
2019-05-13T10:43:52.107Z,4.37
2019-05-13T10:46:22.179Z,3.57
2019-05-13T10:48:52.642Z,2.30
2019-05-13T10:51:22.280Z,1.90
2019-05-13T10:53:54.599Z,2.00
2019-05-13T10:56:21.917Z,3.73
2019-05-13T10:58:53.363Z,2.13
2019-05-13T11:01:22.539Z,1.93
2019-05-13T11:03:52.359Z,1.90
2019-05-13T11:06:21.944Z,2.40
2019-05-13T11:08:53.238Z,3.73
2019-05-13T11:11:22.054Z,2.00
2019-05-13T11:13:58.844Z,5.13
2019-05-13T11:16:22.690Z,3.23
2019-05-13T11:18:52.353Z,2.00
2019-05-13T11:21:22.196Z,2.53
2019-05-13T11:23:52.710Z,3.27
2019-05-13T11:26:23.217Z,1.63
2019-05-13T11:28:52.316Z,1.80
2019-05-13T11:31:22.461Z,2.80
2019-05-13T11:33:52.198Z,2.10
2019-05-13T11:36:23.285Z,2.23
2019-05-13T11:38:53.147Z,3.70
2019-05-13T11:41:23.787Z,2.20
2019-05-13T11:44:11.933Z,3.23
2019-05-13T11:46:23.431Z,2.47
2019-05-13T11:48:53.070Z,2.33
2019-05-13T11:51:24.031Z,2.90
2019-05-13T11:53:53.894Z,2.03
2019-05-13T11:56:23.158Z,4.90
2019-05-13T11:58:53.775Z,2.10
2019-05-13T12:01:23.022Z,5.90
2019-05-13T12:03:53.160Z,2.10
2019-05-13T12:06:23.218Z,3.37
2019-05-13T12:08:55.296Z,2.53
2019-05-13T12:11:22.973Z,4.17
2019-05-13T12:13:52.777Z,1.37
2019-05-13T12:16:22.675Z,2.90
2019-05-13T12:18:52.856Z,2.80
2019-05-13T12:21:22.199Z,2.10
2019-05-13T12:23:52.778Z,1.83
2019-05-13T12:26:23.698Z,2.20
2019-05-13T12:28:53.641Z,2.17
2019-05-13T12:31:22.582Z,2.10
2019-05-13T12:33:52.315Z,2.27
2019-05-13T12:36:23.616Z,2.20
2019-05-13T12:38:53.609Z,2.50
2019-05-13T12:41:23.314Z,2.50
2019-05-13T12:43:54.024Z,1.63
2019-05-13T12:46:24.746Z,2.07
2019-05-13T12:48:52.776Z,3.90
2019-05-13T12:51:22.622Z,2.20
2019-05-13T12:53:52.643Z,1.80
2019-05-13T12:56:23.492Z,2.37
2019-05-13T12:58:52.408Z,1.70
2019-05-13T13:01:23.984Z,3.27
2019-05-13T13:03:52.154Z,2.53
2019-05-13T13:06:30.357Z,2.73
2019-05-13T13:08:51.327Z,1.70
2019-05-13T13:11:22.555Z,2.37
2019-05-13T13:13:58.853Z,2.83
2019-05-13T13:16:20.745Z,1.50
2019-05-13T13:18:52.143Z,2.13
2019-05-13T13:21:24.290Z,1.60
2019-05-13T13:23:51.857Z,3.50
2019-05-13T13:26:21.986Z,1.87
2019-05-13T13:28:55.507Z,3.10
2019-05-13T13:31:25.123Z,2.13
2019-05-13T13:33:55.313Z,1.73
2019-05-13T13:36:24.180Z,3.37
2019-05-13T13:38:56.183Z,3.83
2019-05-13T13:41:23.524Z,6.37
2019-05-13T13:43:53.922Z,3.20
2019-05-13T13:46:33.773Z,2.97
2019-05-13T13:48:55.276Z,3.30
2019-05-13T13:51:26.448Z,4.40
2019-05-13T13:53:56.563Z,4.00
2019-05-13T13:56:25.633Z,3.50
2019-05-13T13:58:54.463Z,2.37
2019-05-13T14:01:27.399Z,2.97
2019-05-13T14:03:53.961Z,3.80
2019-05-13T14:07:22.351Z,3.17
2019-05-13T14:08:53.106Z,2.90
2019-05-13T14:11:23.236Z,3.10
2019-05-13T14:13:51.976Z,4.63
2019-05-13T14:16:28.513Z,2.50
2019-05-13T14:18:52.354Z,2.00
2019-05-13T14:21:21.650Z,2.20
2019-05-13T14:23:51.953Z,1.97
2019-05-13T14:26:22.156Z,9.90
2019-05-13T14:28:53.553Z,4.30
2019-05-13T14:31:21.578Z,2.40
2019-05-13T14:33:52.064Z,7.20
2019-05-13T14:36:23.110Z,2.73
2019-05-13T14:38:55.275Z,2.77
2019-05-13T14:41:22.032Z,2.00
2019-05-13T14:43:51.768Z,2.00
2019-05-13T14:46:25.241Z,2.80
2019-05-13T14:48:50.840Z,5.20
2019-05-13T14:51:21.858Z,3.00
2019-05-13T14:53:51.967Z,1.93
2019-05-13T14:56:22.118Z,3.50
2019-05-13T14:58:52.655Z,2.37
2019-05-13T15:01:22.715Z,2.37
2019-05-13T15:03:52.117Z,3.00
2019-05-13T15:06:22.076Z,3.60
2019-05-13T15:08:52.657Z,2.70
2019-05-13T15:11:21.914Z,3.30
2019-05-13T15:13:52.405Z,1.70
2019-05-13T15:16:22.447Z,2.00
2019-05-13T15:18:52.416Z,2.70
2019-05-13T15:21:21.655Z,3.80
2019-05-13T15:23:51.803Z,1.77
2019-05-13T15:26:22.307Z,2.00
2019-05-13T15:28:51.853Z,2.80
2019-05-13T15:31:22.101Z,1.90
2019-05-13T15:33:52.437Z,2.20
2019-05-13T15:36:22.621Z,2.43
2019-05-13T15:38:51.981Z,1.70
2019-05-13T15:41:20.996Z,3.27
2019-05-13T15:43:51.857Z,4.60
2019-05-13T15:46:21.961Z,2.07
2019-05-13T15:48:51.595Z,2.90
2019-05-13T15:51:22.121Z,2.90
2019-05-13T15:53:51.787Z,2.30
2019-05-13T15:56:22.705Z,2.30
2019-05-13T15:58:52.957Z,4.03
2019-05-13T16:01:22.985Z,3.50
2019-05-13T16:03:53.441Z,4.83
2019-05-13T16:06:21.929Z,3.60
2019-05-13T16:08:51.816Z,7.83
2019-05-13T16:11:21.953Z,2.27
2019-05-13T16:13:51.885Z,3.83
2019-05-13T16:16:21.839Z,2.77
2019-05-13T16:18:52.798Z,1.50
2019-05-13T16:21:21.471Z,1.87
2019-05-13T16:23:51.957Z,2.60
2019-05-13T16:26:22.716Z,2.20
2019-05-13T16:28:52.409Z,1.90
2019-05-13T16:31:21.499Z,1.33
2019-05-13T16:33:52.088Z,7.67
2019-05-13T16:36:22.136Z,4.40
2019-05-13T16:38:51.170Z,1.93
2019-05-13T16:41:22.106Z,3.37
2019-05-13T16:43:50.603Z,2.20
2019-05-13T16:46:21.243Z,3.07
2019-05-13T16:48:49.317Z,3.40
2019-05-13T16:51:18.070Z,5.03
2019-05-13T16:53:46.459Z,3.13
2019-05-13T16:56:26.878Z,1.43
2019-05-13T16:58:48.997Z,1.57
2019-05-13T17:01:17.401Z,3.10
2019-05-13T17:03:45.921Z,2.37
2019-05-13T17:06:15.947Z,2.20
2019-05-13T17:08:44.853Z,2.03
2019-05-13T17:11:13.296Z,1.90
2019-05-13T17:13:42.317Z,1.37
2019-05-13T17:16:12.129Z,3.60
2019-05-13T17:18:41.750Z,3.00
2019-05-13T17:21:10.423Z,1.73
2019-05-13T17:23:41.626Z,2.10
2019-05-13T17:26:11.644Z,1.93
2019-05-13T17:28:48.621Z,1.90
2019-05-13T17:31:17.268Z,1.97
2019-05-13T17:33:45.868Z,3.77
2019-05-13T17:36:14.382Z,4.10
2019-05-13T17:38:42.813Z,4.40
2019-05-13T17:41:13.721Z,3.53
2019-05-13T17:43:42.422Z,3.13
2019-05-13T17:46:12.630Z,8.27
2019-05-13T17:48:41.754Z,9.43
2019-05-13T17:51:12.694Z,1.80
2019-05-13T17:53:41.340Z,1.77
2019-05-13T17:56:11.215Z,2.20
2019-05-13T17:58:42.076Z,3.87
2019-05-13T18:01:14.177Z,3.33
2019-05-13T18:03:42.715Z,4.30
2019-05-13T18:06:11.573Z,5.80
2019-05-13T18:08:41.170Z,5.80
2019-05-13T18:11:11.525Z,4.37
2019-05-13T18:13:43.130Z,4.00
2019-05-13T18:16:12.532Z,3.67
2019-05-13T18:18:47.264Z,4.70
2019-05-13T18:21:15.171Z,3.77
2019-05-13T18:23:43.576Z,5.43
2019-05-13T18:26:16.169Z,3.47
2019-05-13T18:28:51.640Z,3.67
2019-05-13T18:31:20.324Z,2.77
2019-05-13T18:33:50.984Z,2.90
2019-05-13T18:36:22.324Z,2.63
2019-05-13T18:38:51.144Z,3.70
2019-05-13T18:41:21.350Z,3.30
2019-05-13T18:43:54.907Z,5.27
2019-05-13T18:46:23.109Z,4.23
2019-05-13T18:48:58.513Z,2.10
2019-05-13T18:51:23.726Z,2.63
2019-05-13T18:53:52.258Z,5.10
2019-05-13T18:56:21.816Z,2.50
2019-05-13T18:58:55.442Z,2.50
2019-05-13T19:01:24.438Z,3.63
2019-05-13T19:03:52.861Z,1.40
2019-05-13T19:06:22.364Z,2.73
2019-05-13T19:08:52.847Z,1.37
2019-05-13T19:11:22.253Z,3.53
2019-05-13T19:13:52.349Z,3.33
2019-05-13T19:16:21.436Z,4.30
2019-05-13T19:18:50.982Z,3.27
2019-05-13T19:21:21.747Z,2.83
2019-05-13T19:23:51.759Z,2.23
2019-05-13T19:26:21.765Z,1.83
2019-05-13T19:28:53.814Z,2.90
2019-05-13T19:31:23.982Z,2.00
2019-05-13T19:33:52.514Z,4.10
2019-05-13T19:36:21.377Z,4.00
2019-05-13T19:38:51.295Z,2.10
2019-05-13T19:41:22.105Z,2.80
2019-05-13T19:43:51.153Z,1.83
2019-05-13T19:46:19.772Z,1.50
2019-05-13T19:48:52.055Z,2.07
2019-05-13T19:51:21.629Z,1.77
2019-05-13T19:53:51.700Z,1.77
2019-05-13T19:56:21.595Z,1.67
2019-05-13T19:58:54.748Z,4.00
2019-05-13T20:01:27.142Z,3.57
2019-05-13T20:03:55.653Z,1.53
2019-05-13T20:06:24.099Z,1.43
2019-05-13T20:08:52.620Z,3.00
2019-05-13T20:11:21.826Z,2.23
2019-05-13T20:13:52.113Z,2.03
2019-05-13T20:16:22.135Z,1.47
2019-05-13T20:18:51.759Z,1.53
2019-05-13T20:21:20.424Z,1.37
2019-05-13T20:23:48.833Z,1.40
2019-05-13T20:26:17.615Z,2.70
2019-05-13T20:28:55.262Z,2.50
2019-05-13T20:31:23.929Z,2.60
2019-05-13T20:33:52.330Z,2.30
2019-05-13T20:36:22.252Z,2.67
2019-05-13T20:38:51.581Z,4.13
2019-05-13T20:41:22.284Z,4.80
2019-05-13T20:43:52.092Z,2.97
2019-05-13T20:46:23.197Z,5.50
2019-05-13T20:48:54.321Z,6.07
2019-05-13T20:51:22.929Z,9.10
2019-05-13T20:53:51.847Z,10.23
2019-05-13T20:56:21.426Z,15.00
2019-05-13T20:58:56.949Z,9.60
2019-05-13T21:01:25.933Z,9.53
2019-05-13T21:03:56.165Z,7.83
2019-05-13T21:06:24.535Z,7.40
2019-05-13T21:08:52.918Z,6.30
2019-05-13T21:11:21.417Z,6.40
2019-05-13T21:13:51.762Z,6.23
2019-05-13T21:16:21.892Z,6.60
2019-05-13T21:18:50.487Z,6.20
2019-05-13T21:21:18.892Z,8.50
2019-05-13T21:23:47.363Z,4.60
2019-05-13T21:26:15.894Z,5.80
2019-05-13T21:28:44.905Z,4.80
2019-05-13T21:31:14.074Z,4.63
2019-05-13T21:33:42.547Z,6.03
2019-05-13T21:36:12.273Z,5.17
2019-05-13T21:38:40.896Z,5.13
2019-05-13T21:41:11.654Z,5.70
2019-05-13T21:43:41.402Z,4.83
2019-05-13T21:46:11.903Z,4.70
2019-05-13T21:48:41.643Z,5.50
2019-05-13T21:51:13.553Z,6.40
2019-05-13T21:53:42.079Z,6.47
2019-05-13T21:56:12.203Z,3.87
2019-05-13T21:58:42.356Z,4.60
2019-05-13T22:01:11.066Z,7.53
2019-05-13T22:03:41.475Z,6.00
2019-05-13T22:06:11.038Z,5.20
2019-05-13T22:08:41.454Z,7.20
2019-05-13T22:11:12.027Z,4.73
2019-05-13T22:13:41.914Z,3.70
2019-05-13T22:16:11.480Z,3.80
2019-05-13T22:18:41.884Z,3.47
2019-05-13T22:21:11.971Z,3.30
2019-05-13T22:23:41.182Z,3.60
2019-05-13T22:26:11.606Z,4.20
2019-05-13T22:28:42.979Z,3.87
2019-05-13T22:31:12.135Z,2.87
2019-05-13T22:33:41.238Z,3.10
2019-05-13T22:36:11.817Z,4.37
2019-05-13T22:38:42.407Z,4.43
2019-05-13T22:41:11.663Z,5.60
2019-05-13T22:43:52.442Z,3.60
2019-05-13T22:46:13.870Z,4.33
2019-05-13T22:48:41.930Z,6.00
2019-05-13T22:51:11.748Z,4.03
2019-05-13T22:53:42.234Z,4.80
2019-05-13T22:56:10.962Z,4.37
2019-05-13T22:58:41.218Z,6.73
2019-05-13T23:01:11.855Z,4.47
2019-05-13T23:03:41.229Z,2.60
2019-05-13T23:06:11.923Z,3.87
2019-05-13T23:08:40.198Z,6.07
2019-05-13T23:11:09.579Z,4.60
2019-05-13T23:13:38.079Z,6.43
2019-05-13T23:16:08.054Z,2.83
2019-05-13T23:18:36.557Z,3.00
2019-05-13T23:21:04.954Z,2.43
2019-05-13T23:23:33.322Z,2.27
2019-05-13T23:26:01.809Z,2.20
2019-05-13T23:28:32.077Z,2.30
2019-05-13T23:31:01.672Z,3.17
2019-05-13T23:33:31.382Z,3.00
2019-05-13T23:36:01.528Z,2.87
2019-05-13T23:38:31.891Z,3.60
2019-05-13T23:41:02.171Z,4.37
2019-05-13T23:43:31.088Z,2.57
2019-05-13T23:46:01.234Z,2.40
2019-05-13T23:48:32.068Z,3.03
2019-05-13T23:51:01.406Z,2.53
2019-05-13T23:53:31.548Z,4.87
2019-05-13T23:56:01.919Z,4.37
2019-05-13T23:58:32.105Z,3.40
